Terminal Aerodrome Forecast
Issued by NWS Tallahassee, FL

Current Version | Previous Version | Text Only | Print | Product List | Glossary On
Versions: 1 2 3 4 5 6 7 8 9 10 11 12 13 14 15 16 17
090
FTUS42 KTAE 282115 AAB
TAFTLH
TAF AMD
KTLH 282115Z 2821/2918 VRB10G20KT 3SM TSRA BKN030CB BKN200
     FM282200 24005KT P6SM VCTS BKN050CB
     FM290100 VRB03KT P6SM BKN250=

USA.gov is the U.S. government's official web portal to all federal, state and local government web resources and services.